Terminal Aerodrome Forecast
Issued by NWS Bismarck, ND

Home | Current Version | Previous Version | Text Only | Print | Product List | Glossary On
Versions: 1 2 3 4 5 6 7 8 9 10 11 12
549
FTUS43 KBIS 212320
TAFISN
TAF
KISN 212320Z 2200/2224 34013G22KT P6SM SKC
     FM220100 35008KT P6SM SKC
     FM220400 VRB04KT P6SM SKC
     FM221700 22006KT P6SM FEW200=

USA.gov is the U.S. government's official web portal to all federal, state and local government web resources and services.